Flight Track Log - Related Links

Times and Time Zones

All times are in EDT time to prevent confusion due to time zone crossing. See the CTL15 flight status page for this flight to view local times or setup timezone preferences in your user account.

Time Position Orientation Groundspeed Altitude Reporting Facility
EDT Latitude Longitude Course Direction KTS MPH feet Rate Location/Type
Wed 08:51:16 PM 41.5344 -81.7953 212° Southwest 98 113 5,100  Level Cleveland Center
Wed 08:52:17 PM 41.5114 -81.8142 211° Southwest 93 107 5,900 443 Climbing Cleveland Center
Wed 08:53:18 PM 41.4842 -81.8358 211° Southwest 122 140 6,000 99 Climbing Cleveland Center
Wed 08:54:18 PM 41.4506 -81.8631 214° Southwest 146 168 6,100 50 Climbing Cleveland Center
Wed 08:55:19 PM 41.4147 -81.8956 214° Southwest 153 176 6,100  Level Cleveland Center
Wed 08:56:20 PM 41.3789 -81.9281 224° Southwest 152 175 6,100  Level Cleveland Center
Wed 08:57:20 PM 41.3469 -81.9689 216° Southwest 148 170 6,100 -50 Level Cleveland Center
Wed 08:58:21 PM 41.3133 -82.0014 226° Southwest 152 175 6,000 -49 Descending Cleveland Center
Wed 08:59:22 PM 41.2856 -82.0394 214° Southwest 147 169 6,000  Level Cleveland Center
Wed 09:00:22 PM 41.2497 -82.0717 227° Southwest 151 174 6,000 Level Cleveland Center
Wed 09:23:48 PM 40.6058 -82.9611 232° Southwest 145 167 6,100  Climbing Indianapolis Center
Wed 09:25:07 PM 40.5728 -83.0161 229° Southwest 147 169 6,000 -41 Descending Indianapolis Center
Wed 09:26:14 PM 40.5439 -83.0600 223° Southwest 145 167 6,000 50 Level Indianapolis Center
Wed 09:27:08 PM 40.5169 -83.0928 227° Southwest 145 167 6,100 104 Climbing Indianapolis Center
Wed 09:28:09 PM 40.4900 -83.1314 227° Southwest 143 165 6,200 47 Climbing Indianapolis Center
Wed 09:29:15 PM 40.4589 -83.1750 217° Southwest 146 168 6,200 -47 Level Indianapolis Center
Wed 09:30:16 PM 40.4256 -83.2081 223° Southwest 146 168 6,100  Descending Indianapolis Center
Wed 09:31:11 PM 40.3986 -83.2408 221° Southwest 146 168 6,200 -52 Climbing Indianapolis Center
Wed 09:32:11 PM 40.3675 -83.2764 228° Southwest 145 167 6,000 -55 Descending Indianapolis Center
Wed 09:33:00 PM 40.3467 -83.3064 229° Southwest 143 165 6,100  Climbing Indianapolis Center
Wed 09:34:06 PM 40.3156 -83.3528 223° Southwest 142 163 6,000 -47 Descending Indianapolis Center
Wed 09:35:07 PM 40.2864 -83.3883 219° Southwest 144 166 6,000  Level Indianapolis Center
Wed 09:36:08 PM 40.2553 -83.4211 210° Southwest 144 166 6,000  Level Indianapolis Center
Wed 09:37:14 PM 40.2156 -83.4511 208° Southwest 146 168 6,000 94 Level Indianapolis Center
Wed 09:38:15 PM 40.1803 -83.4756 206° Southwest 146 168 6,200 98 Climbing Indianapolis Center
Wed 09:39:16 PM 40.1428 -83.5000 208° Southwest 148 170 6,200 -55 Level Indianapolis Center
Wed 09:40:04 PM 40.1156 -83.5189 212° Southwest 147 169 6,100 -104 Descending Indianapolis Center
Wed 09:41:11 PM 40.0761 -83.5517 220° Southwest 150 173 6,000  Descending Indianapolis Center
Wed 09:42:12 PM 40.0467 -83.5842 213° Southwest 144 166 6,100  Climbing Indianapolis Center
Wed 09:43:13 PM 40.0114 -83.6139 213° Southwest 147 169 6,000 -49 Descending Indianapolis Center
Wed 09:44:14 PM 39.9758 -83.6436 221° Southwest 145 167 6,000  Level Indianapolis Center
Wed 09:45:14 PM 39.9425 -83.6817 218° Southwest 148 170 6,000 50 Level Indianapolis Center
Wed 09:46:15 PM 39.9111 -83.7139 236° Southwest 145 167 6,100  Climbing Indianapolis Center
Wed 09:47:16 PM 39.8883 -83.7572 238° Southwest 145 167 6,000 -49 Descending Indianapolis Center
Wed 09:48:17 PM 39.8672 -83.8006 231° Southwest 144 166 6,000 50 Level Indianapolis Center
Wed 09:49:17 PM 39.8422 -83.8408 227° Southwest 146 168 6,100 99 Climbing Indianapolis Center
Wed 09:50:18 PM 39.8150 -83.8786 237° Southwest 142 163 6,200 -98 Climbing Indianapolis Center
Wed 09:51:19 PM 39.7919 -83.9244 236° Southwest 146 168 5,900 -365 Descending Indianapolis Center
Wed 09:52:13 PM 39.7708 -83.9650 223° Southwest 152 175 5,500 -470 Descending Indianapolis Center
Wed 09:53:14 PM 39.7353 -84.0078 228° Southwest 159 183 5,000 -491 Descending Indianapolis Center
Wed 09:55:04 PM 39.6833 -84.0833 237° Southwest 159 183 4,100 -353 Descending Cincinnati TRACON
Wed 09:56:04 PM 39.6667 -84.1167 229° Southwest 146 168 4,000  Descending Cincinnati TRACON
Wed 09:57:04 PM 39.6333 -84.1667 237° Southwest 143 165 4,100 50 Climbing Cincinnati TRACON
Wed 09:58:04 PM 39.6167 -84.2000 218° Southwest 141 162 4,100  Level Cincinnati TRACON
Wed 09:58:58 PM 39.5833 -84.2333 218° Southwest 140 161 4,100  Level Cincinnati TRACON
Wed 09:59:58 PM 39.5500 -84.2667 237° Southwest 143 165 4,100 -100 Level Cincinnati TRACON
Wed 10:00:58 PM 39.5333 -84.3000 218° Southwest 144 166 3,900 -350 Descending Cincinnati TRACON
Wed 10:01:58 PM 39.5000 -84.3333 218° Southwest 154 177 3,400 -550 Descending Cincinnati TRACON
Wed 10:02:58 PM 39.4667 -84.3667 218° Southwest 152 175 2,800 -600 Descending Cincinnati TRACON

Login

Don't have an account? Register now (free) for customized features, flight alerts, and more!